Stratford, CT

5:47 PM EDT on July 30, 2016 (GMT -0400)
Sikorsky Memorial | | Change Station

Elev 16 ft 41.16 °N, 73.13 °W | Updated 3 minutes ago

Light Rain
Light Rain
80 °F
Feels Like 84 °F
N
9
Wind Variable Wind from SW

Today
High -- | Low -- °F
--% Chance of Precip.
Yesterday
High -- | Low -- °F
Precip. -- in
Pressure 30.02 in
Visibility 8.0 miles
Clouds Few 2000 ft
Scattered Clouds 2600 ft
Mostly Cloudy 12000 ft
Heat Index 84 °F
Dew Point 74 °F
Humidity 81%
Rainfall 0.00 in
Snow Depth Not available.
5:46 AM 8:10 PM
Waning Crescent, 11% visible
SPECI KBDR 302144Z 22008KT 8SM -RA FEW020 SCT026 BKN120 27/23 A3002 RMK AO2 RAB2059 P0000 T02670233
Pressure 30.02 in
Visibility 8.0 miles
Clouds Few 2000 ft
Scattered Clouds 2600 ft
Mostly Cloudy 12000 ft
Heat Index 84 °F
Dew Point 74 °F
Humidity 81%
Rainfall 0.00 in
Snow Depth Not available.
5:46 AM 8:10 PM
Waning Crescent, 11% visible
SPECI KBDR 302144Z 22008KT 8SM -RA FEW020 SCT026 BKN120 27/23 A3002 RMK AO2 RAB2059 P0000 T02670233

10-Day Weather Forecast

Almanac

Astronomy

Jul. 30, 2016 Rise Set
Actual Time
Civil Twilight
Nautical Twilight
Astronomical Twilight
Moon
Length of Visible Light
Length of Day
Tomorrow will be .
, % of the Moon is Illuminated

Today's Extremes

State Highs State Lows

Community

WunderPhotos

Upload Photos

1,928,657 photos uploaded!

WunderBlog® & News

Nearby

Air Quality

  Air Quality AQ Index Pollutant
Not available.

Snow Depth

Station Depth Elevation

Earthquake Activity

City Distance Mag. Time & Date
Minimum magnitude displayed is 2.5.

Coastal Water Temperatures

Place Temperature

Stations

Nearby Weather Stations

Station Location Temp. Windchill Dew Point Humidity Wind Precip. Elev Updated Type
                   

Watches & Warnings

There are currently no watches in effect.